Time;durP1;ratioP1;P1;durP2;ratioP2;P2;SDS_P1;SDS_P2;PMS_P1;PMS_P2;Temp;Humidity;BMP_temperature;BMP_pressure;BME280_temperature;BME280_humidity;BME280_pressure;Samples;Min_cycle;Max_cycle;Signal;HPM_P1;HPM_P2
2023/12/01 00:01:15;;;;;;;9.43;9.23;;;1.80;99.90;;;;;;5091753;28;21021;-69
2023/12/01 00:03:41;;;;;;;9.80;9.60;;;1.80;99.90;;;;;;5068364;28;20834;-71
2023/12/01 00:06:10;;;;;;;9.33;9.13;;;1.70;99.90;;;;;;5080703;28;20465;-72
2023/12/01 00:08:37;;;;;;;9.17;8.97;;;1.70;99.90;;;;;;5082819;28;20470;-70
2023/12/01 00:11:04;;;;;;;9.50;9.30;;;1.70;99.90;;;;;;5078486;28;20459;-72
2023/12/01 00:13:31;;;;;;;9.33;9.13;;;1.70;99.90;;;;;;5075151;28;20512;-70
2023/12/01 00:15:58;;;;;;;9.00;8.80;;;1.70;99.90;;;;;;5085102;28;21022;-71
2023/12/01 00:18:25;;;;;;;9.53;9.33;;;1.70;99.90;;;;;;5088676;28;20469;-70
2023/12/01 00:20:52;;;;;;;9.23;9.03;;;1.70;99.90;;;;;;5074734;28;21038;-70
2023/12/01 00:23:21;;;;;;;9.10;8.90;;;1.60;99.90;;;;;;5083656;28;20455;-70
2023/12/01 00:25:48;;;;;;;9.90;9.70;;;1.60;99.90;;;;;;5083134;28;20963;-71
2023/12/01 00:28:16;;;;;;;9.30;9.10;;;1.60;99.90;;;;;;5083826;28;20458;-69
2023/12/01 00:30:43;;;;;;;9.20;9.00;;;1.80;99.90;;;;;;5081082;28;20857;-71
2023/12/01 00:33:10;;;;;;;8.40;8.30;;;1.60;99.90;;;;;;5085550;28;20811;-71
2023/12/01 00:35:37;;;;;;;8.87;8.67;;;1.50;99.90;;;;;;5078243;28;20984;-72
2023/12/01 00:38:05;;;;;;;8.00;7.90;;;1.50;99.90;;;;;;5079908;28;20470;-72
2023/12/01 00:40:34;;;;;;;9.10;8.90;;;1.50;99.90;;;;;;5088723;28;20458;-71
2023/12/01 00:43:01;;;;;;;9.07;8.87;;;1.50;99.90;;;;;;5075921;28;20458;-69
2023/12/01 00:45:28;;;;;;;9.50;9.30;;;1.50;99.90;;;;;;5086305;28;20570;-70
2023/12/01 00:47:56;;;;;;;8.70;8.60;;;1.60;99.90;;;;;;5092126;28;20593;-71
2023/12/01 00:50:23;;;;;;;9.13;8.93;;;1.60;99.90;;;;;;5086423;28;20485;-72
2023/12/01 00:52:51;;;;;;;10.03;9.83;;;1.70;99.90;;;;;;5077475;28;20488;-71
2023/12/01 00:55:17;;;;;;;9.70;9.50;;;1.70;99.90;;;;;;5082982;28;20537;-71
2023/12/01 00:57:46;;;;;;;9.37;9.17;;;1.70;99.90;;;;;;5099110;28;20983;-72
2023/12/01 01:00:13;;;;;;;9.97;9.77;;;1.70;99.90;;;;;;5080750;28;20446;-70
2023/12/01 01:02:41;;;;;;;9.70;9.50;;;1.60;99.90;;;;;;5078070;28;20471;-70
2023/12/01 01:05:08;;;;;;;9.60;9.40;;;1.50;99.90;;;;;;5075179;28;20462;-70
2023/12/01 01:07:36;;;;;;;9.60;9.40;;;1.40;99.90;;;;;;5082103;28;20557;-72
2023/12/01 01:10:03;;;;;;;9.20;9.00;;;1.40;99.90;;;;;;5084150;28;20497;-72
2023/12/01 01:12:30;;;;;;;8.77;8.67;;;1.50;99.90;;;;;;5082872;28;20506;-70
2023/12/01 01:15:02;;;;;;;8.40;8.30;;;1.50;99.90;;;;;;5087673;28;20485;-71
2023/12/01 01:17:29;;;;;;;7.57;7.47;;;1.50;99.90;;;;;;5084671;28;20986;-72
2023/12/01 01:19:57;;;;;;;8.40;8.30;;;1.40;99.90;;;;;;5087722;28;20545;-72
2023/12/01 01:22:25;;;;;;;8.80;8.60;;;1.30;99.90;;;;;;5073775;28;20517;-71
2023/12/01 01:24:52;;;;;;;9.70;9.50;;;1.40;99.90;;;;;;5087113;28;20482;-70
2023/12/01 01:27:19;;;;;;;8.63;8.53;;;1.40;99.90;;;;;;5093433;28;20459;-71
2023/12/01 01:29:46;;;;;;;8.70;8.60;;;1.30;99.90;;;;;;5086031;28;20489;-72
2023/12/01 01:32:14;;;;;;;8.53;8.43;;;1.30;99.90;;;;;;5081014;28;20849;-72
2023/12/01 01:34:41;;;;;;;8.83;8.73;;;1.20;99.90;;;;;;5086980;28;20454;-69
2023/12/01 01:37:08;;;;;;;8.97;8.77;;;1.20;99.90;;;;;;5086936;28;20984;-71
2023/12/01 01:39:35;;;;;;;8.33;8.23;;;1.20;99.90;;;;;;5081854;28;20482;-72
2023/12/01 01:42:02;;;;;;;7.67;7.57;;;1.20;99.90;;;;;;5091345;28;20470;-70
2023/12/01 01:44:29;;;;;;;8.00;7.90;;;1.20;99.90;;;;;;5091569;28;20825;-71
2023/12/01 01:46:56;;;;;;;7.87;7.77;;;1.10;99.90;;;;;;5082001;28;20563;-71
2023/12/01 01:49:27;;;;;;;7.70;7.60;;;1.10;99.90;;;;;;5081042;28;20467;-72
2023/12/01 01:51:55;;;;;;;7.60;7.50;;;1.20;99.90;;;;;;5090895;28;20458;-72
2023/12/01 01:54:24;;;;;;;7.83;7.73;;;1.20;99.90;;;;;;5078128;28;20474;-70
2023/12/01 01:56:52;;;;;;;8.07;7.97;;;1.20;99.90;;;;;;5091359;28;20468;-71
2023/12/01 01:59:20;;;;;;;8.80;8.70;;;1.20;99.90;;;;;;5077194;28;20463;-70
2023/12/01 02:01:46;;;;;;;8.37;8.27;;;1.30;99.90;;;;;;5079648;28;20456;-71
2023/12/01 02:04:14;;;;;;;7.70;7.60;;;1.30;99.90;;;;;;5080293;28;20554;-72
2023/12/01 02:06:42;;;;;;;8.40;8.30;;;1.20;99.90;;;;;;5089850;28;20458;-69
2023/12/01 02:09:09;;;;;;;7.70;7.60;;;1.20;99.90;;;;;;5092429;28;20459;-72
2023/12/01 02:11:37;;;;;;;7.60;7.50;;;1.20;99.90;;;;;;5077666;28;20584;-71
2023/12/01 02:14:04;;;;;;;6.70;6.60;;;1.10;99.90;;;;;;5077607;28;20961;-72
2023/12/01 02:16:30;;;;;;;7.10;7.00;;;1.10;99.90;;;;;;5092001;28;20539;-70
2023/12/01 02:18:58;;;;;;;7.03;6.93;;;1.00;99.90;;;;;;5086576;28;20476;-72
2023/12/01 02:21:27;;;;;;;7.60;7.50;;;1.10;99.90;;;;;;5075046;28;20486;-71
2023/12/01 02:23:56;;;;;;;7.90;7.80;;;1.10;99.90;;;;;;5080410;28;20490;-70
2023/12/01 02:26:24;;;;;;;7.10;7.00;;;1.10;99.90;;;;;;5083413;28;20965;-71
2023/12/01 02:28:52;;;;;;;6.60;6.50;;;1.00;99.90;;;;;;5088786;28;20544;-71
2023/12/01 02:31:18;;;;;;;6.57;6.47;;;1.00;99.90;;;;;;5089023;28;20489;-72
2023/12/01 02:33:45;;;;;;;7.40;7.30;;;1.00;99.90;;;;;;5081494;28;21063;-70
2023/12/01 02:36:14;;;;;;;7.80;7.70;;;0.90;99.90;;;;;;5089341;28;20466;-69
2023/12/01 02:38:41;;;;;;;9.00;8.80;;;0.90;99.90;;;;;;5084345;28;20456;-70
2023/12/01 02:41:09;;;;;;;8.77;8.67;;;1.00;99.90;;;;;;5069979;28;20467;-71
2023/12/01 02:43:36;;;;;;;8.33;8.23;;;1.00;99.90;;;;;;5088641;28;20470;-72
2023/12/01 02:46:03;;;;;;;9.20;9.00;;;1.10;99.90;;;;;;5094577;28;20458;-71
2023/12/01 02:48:29;;;;;;;8.20;8.10;;;1.10;99.90;;;;;;5090471;28;20462;-69
2023/12/01 02:50:56;;;;;;;7.60;7.50;;;1.10;99.90;;;;;;5087143;28;20915;-69
2023/12/01 02:53:24;;;;;;;7.93;7.83;;;1.10;99.90;;;;;;5075466;28;20813;-70
2023/12/01 02:55:51;;;;;;;7.47;7.37;;;1.20;99.90;;;;;;5075047;28;20893;-71
2023/12/01 02:58:20;;;;;;;8.20;8.10;;;1.10;99.90;;;;;;5090206;28;20941;-71
2023/12/01 03:00:47;;;;;;;7.60;7.50;;;1.20;99.90;;;;;;5089919;28;20471;-72
2023/12/01 03:03:14;;;;;;;7.93;7.83;;;1.00;99.90;;;;;;5082242;28;20557;-72
2023/12/01 03:05:41;;;;;;;7.57;7.47;;;1.00;99.90;;;;;;5075834;28;20470;-68
2023/12/01 03:08:08;;;;;;;7.90;7.80;;;1.00;99.90;;;;;;5074535;28;20508;-70
2023/12/01 03:10:35;;;;;;;8.83;8.70;;;1.20;99.90;;;;;;5082332;28;20491;-69
2023/12/01 03:13:02;;;;;;;8.60;8.50;;;1.30;99.90;;;;;;5088207;28;20491;-70
2023/12/01 03:15:31;;;;;;;9.10;8.90;;;1.30;99.90;;;;;;5081532;28;20868;-68
2023/12/01 03:17:58;;;;;;;9.63;9.43;;;1.30;99.90;;;;;;5080163;28;20469;-71
2023/12/01 03:20:27;;;;;;;9.53;9.33;;;1.30;99.90;;;;;;5078683;28;20470;-69
2023/12/01 03:22:54;;;;;;;9.00;8.80;;;1.20;99.90;;;;;;5082184;28;20850;-70
2023/12/01 03:25:21;;;;;;;9.43;9.23;;;1.20;99.90;;;;;;5080537;28;20525;-72
2023/12/01 03:27:49;;;;;;;9.30;9.10;;;1.30;99.90;;;;;;5080250;28;20463;-70
2023/12/01 03:30:17;;;;;;;9.10;8.90;;;1.30;99.90;;;;;;5075131;28;20475;-71
2023/12/01 03:32:48;;;;;;;9.57;9.37;;;1.30;99.90;;;;;;5078934;28;20467;-70
2023/12/01 03:35:16;;;;;;;9.40;9.20;;;1.30;99.90;;;;;;5089017;28;20455;-68
2023/12/01 03:37:43;;;;;;;10.27;10.07;;;1.30;99.90;;;;;;5075008;28;20461;-69
2023/12/01 03:40:12;;;;;;;9.97;9.77;;;1.40;99.90;;;;;;5088535;28;20458;-69
2023/12/01 03:42:41;;;;;;;10.20;10.00;;;1.30;99.90;;;;;;5088463;28;20545;-70
2023/12/01 03:45:12;;;;;;;10.57;10.37;;;1.30;99.90;;;;;;5076674;28;20498;-69
2023/12/01 03:47:39;;;;;;;10.40;10.20;;;1.30;99.90;;;;;;5080079;28;20861;-71
2023/12/01 03:50:11;;;;;;;10.60;10.40;;;1.20;99.90;;;;;;5081630;28;20482;-68
2023/12/01 03:52:40;;;;;;;11.00;10.70;;;1.30;99.90;;;;;;5070420;28;20467;-71
2023/12/01 03:55:07;;;;;;;11.00;10.70;;;1.20;99.90;;;;;;5076614;28;20686;-69
2023/12/01 03:57:34;;;;;;;11.70;11.40;;;1.20;99.90;;;;;;5087872;28;20458;-69
2023/12/01 04:00:04;;;;;;;11.17;10.87;;;1.10;99.90;;;;;;5079002;28;20553;-70
2023/12/01 04:02:31;;;;;;;11.37;11.07;;;1.20;99.90;;;;;;5087788;28;20459;-69
2023/12/01 04:04:58;;;;;;;11.10;10.80;;;1.30;99.90;;;;;;5086768;28;20972;-69
2023/12/01 04:07:26;;;;;;;10.93;10.63;;;1.40;99.90;;;;;;5077835;28;20458;-71
2023/12/01 04:09:53;;;;;;;11.77;11.47;;;1.40;99.90;;;;;;5084417;28;20446;-70
2023/12/01 04:12:20;;;;;;;11.50;11.20;;;1.40;99.90;;;;;;5077103;28;21051;-70
2023/12/01 04:14:48;;;;;;;10.93;10.63;;;1.30;99.90;;;;;;5085259;28;20801;-71
2023/12/01 04:17:15;;;;;;;11.73;11.43;;;1.20;99.90;;;;;;5078228;28;20471;-68
2023/12/01 04:19:42;;;;;;;11.00;10.70;;;1.10;99.90;;;;;;5085131;28;20489;-68
2023/12/01 04:22:09;;;;;;;11.07;10.77;;;1.20;99.90;;;;;;5080017;28;20479;-71
2023/12/01 04:24:37;;;;;;;11.30;11.00;;;1.20;99.90;;;;;;5079931;28;20494;-69
2023/12/01 04:27:05;;;;;;;11.80;11.50;;;1.20;99.90;;;;;;5074094;28;20463;-71
2023/12/01 04:29:32;;;;;;;11.43;11.13;;;1.20;99.90;;;;;;5085361;28;20541;-70
2023/12/01 04:31:59;;;;;;;12.17;11.87;;;1.30;99.90;;;;;;5083303;28;20485;-69
2023/12/01 04:34:26;;;;;;;12.20;11.90;;;1.40;99.90;;;;;;5086335;28;20467;-70
2023/12/01 04:36:54;;;;;;;12.40;12.03;;;1.50;99.90;;;;;;5084892;28;20458;-69
2023/12/01 04:39:21;;;;;;;12.13;11.83;;;1.50;99.90;;;;;;5077461;28;20770;-72
2023/12/01 04:41:51;;;;;;;12.50;12.10;;;1.40;99.90;;;;;;5084314;28;20493;-69
2023/12/01 04:44:18;;;;;;;12.50;12.10;;;1.30;99.90;;;;;;5081850;28;20459;-69
2023/12/01 04:46:45;;;;;;;12.80;12.40;;;1.40;99.90;;;;;;5082308;28;20521;-71
2023/12/01 04:49:12;;;;;;;12.87;12.47;;;1.40;99.90;;;;;;5088703;28;20459;-70
2023/12/01 04:51:39;;;;;;;12.50;12.10;;;1.40;99.90;;;;;;5082079;28;20491;-70
2023/12/01 04:54:07;;;;;;;13.00;12.60;;;1.40;99.90;;;;;;5078383;28;20979;-69
2023/12/01 04:56:34;;;;;;;13.13;12.73;;;1.30;99.90;;;;;;5078055;28;20528;-72
2023/12/01 04:59:03;;;;;;;13.17;12.77;;;1.40;99.90;;;;;;5092345;28;20465;-70
2023/12/01 05:01:35;;;;;;;13.40;13.00;;;1.40;99.90;;;;;;5079432;28;20466;-68
2023/12/01 05:04:02;;;;;;;13.10;12.70;;;1.30;99.90;;;;;;5090483;28;20465;-68
2023/12/01 05:06:29;;;;;;;13.50;13.10;;;1.30;99.90;;;;;;5083918;28;20576;-70
2023/12/01 05:08:56;;;;;;;13.43;13.03;;;1.40;99.90;;;;;;5078798;28;20857;-69
2023/12/01 05:11:23;;;;;;;13.50;13.10;;;1.40;99.90;;;;;;5085541;28;20482;-71
2023/12/01 05:13:51;;;;;;;13.17;12.77;;;1.50;99.90;;;;;;5076852;28;20785;-70
2023/12/01 05:16:20;;;;;;;13.43;13.03;;;1.50;99.90;;;;;;5086216;28;20458;-69
2023/12/01 05:18:46;;;;;;;13.30;12.90;;;1.50;99.90;;;;;;5082732;28;20462;-71
2023/12/01 05:21:14;;;;;;;13.40;13.00;;;1.60;99.90;;;;;;5083750;28;20532;-71
2023/12/01 05:23:41;;;;;;;13.50;13.10;;;1.60;99.90;;;;;;5087022;28;20482;-71
2023/12/01 05:26:11;;;;;;;13.67;13.27;;;1.50;99.90;;;;;;5084504;28;20443;-69
2023/12/01 05:28:38;;;;;;;13.00;12.60;;;1.60;99.90;;;;;;5078132;28;20469;-71
2023/12/01 05:31:05;;;;;;;13.60;13.20;;;1.50;99.90;;;;;;5078340;28;20858;-69
2023/12/01 05:33:38;;;;;;;12.27;11.97;;;1.50;99.90;;;;;;5091214;28;20460;-69
2023/12/01 05:36:08;;;;;;;13.20;12.80;;;1.50;99.90;;;;;;5096689;28;20458;-69
2023/12/01 05:38:35;;;;;;;13.33;12.93;;;1.40;99.90;;;;;;5083019;28;20547;-70
2023/12/01 05:41:02;;;;;;;13.57;13.17;;;1.40;99.90;;;;;;5089342;28;20846;-69
2023/12/01 05:43:29;;;;;;;13.40;13.00;;;1.40;99.90;;;;;;5093273;28;20446;-69
2023/12/01 05:45:56;;;;;;;12.50;12.10;;;1.40;99.90;;;;;;5090126;28;20459;-71
2023/12/01 05:48:23;;;;;;;13.57;13.17;;;1.40;99.90;;;;;;5069172;28;20448;-71
2023/12/01 05:50:51;;;;;;;13.60;13.20;;;1.50;99.90;;;;;;5075772;28;20479;-71
2023/12/01 05:53:18;;;;;;;13.17;12.77;;;1.50;99.90;;;;;;5090839;28;20465;-70
2023/12/01 05:55:46;;;;;;;13.30;12.90;;;1.40;99.90;;;;;;5075556;28;20514;-69
2023/12/01 05:58:14;;;;;;;13.60;13.20;;;1.40;99.90;;;;;;5085250;28;20455;-70
2023/12/01 06:00:41;;;;;;;13.53;13.13;;;1.30;99.90;;;;;;5071846;28;20982;-70
2023/12/01 06:03:09;;;;;;;13.70;13.30;;;1.30;99.90;;;;;;5076533;28;20459;-70
2023/12/01 06:05:37;;;;;;;13.93;13.50;;;1.40;99.90;;;;;;5090280;28;20463;-69
2023/12/01 06:08:08;;;;;;;14.00;13.60;;;1.30;99.90;;;;;;5081222;28;20542;-69
2023/12/01 06:10:35;;;;;;;13.07;12.67;;;1.30;99.90;;;;;;5071550;28;20848;-68
2023/12/01 06:13:04;;;;;;;13.40;13.00;;;1.30;99.90;;;;;;5074464;28;20464;-68
2023/12/01 06:15:31;;;;;;;13.30;12.90;;;1.40;99.90;;;;;;5087306;28;20489;-69
2023/12/01 06:17:59;;;;;;;13.30;12.90;;;1.40;99.90;;;;;;5075857;28;20934;-71
2023/12/01 06:20:29;;;;;;;13.30;12.90;;;1.30;99.90;;;;;;5084366;28;20458;-69
2023/12/01 06:22:57;;;;;;;13.30;12.90;;;1.40;99.90;;;;;;5079639;28;20488;-71
2023/12/01 06:25:28;;;;;;;13.40;13.00;;;1.30;99.90;;;;;;5089235;28;20485;-70
2023/12/01 06:27:57;;;;;;;13.60;13.20;;;1.40;99.90;;;;;;5090365;28;20477;-68
2023/12/01 06:30:25;;;;;;;13.60;13.20;;;1.40;99.90;;;;;;5065969;28;20502;-69
2023/12/01 06:32:53;;;;;;;13.70;13.30;;;1.50;99.90;;;;;;5091358;28;20486;-70
2023/12/01 06:35:21;;;;;;;13.30;12.90;;;1.50;99.90;;;;;;5074713;28;20463;-67
2023/12/01 06:37:49;;;;;;;13.50;13.10;;;1.50;99.90;;;;;;5082910;28;20459;-70
2023/12/01 06:40:16;;;;;;;13.53;13.13;;;1.40;99.90;;;;;;5086652;28;20469;-70
2023/12/01 06:42:46;;;;;;;13.10;12.70;;;1.40;99.90;;;;;;5085890;28;20465;-68
2023/12/01 06:45:15;;;;;;;13.20;12.80;;;1.50;99.90;;;;;;5079333;28;20468;-71
2023/12/01 06:47:46;;;;;;;13.50;13.10;;;1.40;99.90;;;;;;5080431;28;20477;-72
2023/12/01 06:50:14;;;;;;;13.03;12.63;;;1.30;99.90;;;;;;5077342;28;20456;-70
2023/12/01 06:52:42;;;;;;;13.70;13.30;;;1.30;99.90;;;;;;5082970;28;21006;-70
2023/12/01 06:55:10;;;;;;;13.20;12.80;;;1.40;99.90;;;;;;5080588;28;20466;-70
2023/12/01 06:57:38;;;;;;;13.33;12.93;;;1.40;99.90;;;;;;5085702;28;20454;-71
2023/12/01 07:00:08;;;;;;;13.63;13.23;;;1.30;99.90;;;;;;5081249;28;20504;-72
2023/12/01 07:02:37;;;;;;;13.50;13.10;;;1.40;99.90;;;;;;5084954;28;20954;-70
2023/12/01 07:05:05;;;;;;;13.60;13.20;;;1.40;99.90;;;;;;5088724;28;20544;-69
2023/12/01 07:07:32;;;;;;;14.23;13.73;;;1.30;99.90;;;;;;5075435;28;20468;-70
2023/12/01 07:10:00;;;;;;;13.80;13.40;;;1.30;99.90;;;;;;5084810;28;20450;-69
2023/12/01 07:12:27;;;;;;;13.73;13.33;;;1.40;99.90;;;;;;5085434;28;21014;-72
2023/12/01 07:14:54;;;;;;;14.40;13.90;;;1.40;99.90;;;;;;5087429;28;20461;-68
2023/12/01 07:17:22;;;;;;;14.00;13.50;;;1.30;99.90;;;;;;5073458;28;20471;-71
2023/12/01 07:19:49;;;;;;;14.73;14.23;;;1.30;99.90;;;;;;5076376;28;20459;-71
2023/12/01 07:22:16;;;;;;;14.40;13.90;;;1.40;99.90;;;;;;5081007;28;20621;-71
2023/12/01 07:24:43;;;;;;;14.33;13.83;;;1.40;99.90;;;;;;5081230;28;20466;-70
2023/12/01 07:27:11;;;;;;;14.03;13.53;;;1.40;99.90;;;;;;5077979;28;20467;-71
2023/12/01 07:29:39;;;;;;;14.23;13.73;;;1.40;99.90;;;;;;5089063;28;20553;-70
2023/12/01 07:32:07;;;;;;;14.17;13.67;;;1.50;99.90;;;;;;5095715;28;21220;-71
2023/12/01 07:34:36;;;;;;;14.30;13.80;;;1.40;99.90;;;;;;5078680;28;20526;-69
2023/12/01 07:37:10;;;;;;;13.93;13.43;;;1.50;99.90;;;;;;5077634;28;20463;-71
2023/12/01 07:39:37;;;;;;;13.63;13.23;;;1.60;99.90;;;;;;5076420;28;20459;-71
2023/12/01 07:42:07;;;;;;;14.43;13.93;;;1.50;99.90;;;;;;5086350;28;20450;-69
2023/12/01 07:44:34;;;;;;;13.90;13.40;;;1.50;99.90;;;;;;5088762;28;20458;-70
2023/12/01 07:47:04;;;;;;;13.60;13.20;;;1.50;99.90;;;;;;5075081;28;20463;-72
2023/12/01 07:49:31;;;;;;;14.00;13.50;;;1.50;99.90;;;;;;5082453;28;20516;-71
2023/12/01 07:52:01;;;;;;;14.30;13.80;;;1.50;99.90;;;;;;5089690;28;21287;-69
2023/12/01 07:54:29;;;;;;;14.60;14.10;;;1.50;99.90;;;;;;5074617;28;20474;-70
2023/12/01 07:56:56;;;;;;;14.27;13.77;;;1.60;99.90;;;;;;5068257;28;20470;-69
2023/12/01 07:59:23;;;;;;;14.00;13.50;;;1.80;99.90;;;;;;5080589;28;20890;-71
2023/12/01 08:01:50;;;;;;;14.07;13.57;;;1.80;99.90;;;;;;5071022;28;20456;-69
2023/12/01 08:04:17;;;;;;;14.10;13.60;;;1.70;99.90;;;;;;5084599;28;20483;-69
2023/12/01 08:06:45;;;;;;;14.40;13.90;;;1.60;99.90;;;;;;5078723;28;20830;-69
2023/12/01 08:09:16;;;;;;;14.40;13.90;;;1.60;99.90;;;;;;5076506;28;20458;-71
2023/12/01 08:11:43;;;;;;;14.43;13.93;;;1.60;99.90;;;;;;5069296;28;20479;-70
2023/12/01 08:14:11;;;;;;;14.37;13.87;;;1.60;99.90;;;;;;5073059;28;21024;-70
2023/12/01 08:16:38;;;;;;;13.90;13.40;;;1.70;99.90;;;;;;5073914;28;20810;-72
2023/12/01 08:19:06;;;;;;;14.40;13.90;;;1.70;99.90;;;;;;5080650;28;20459;-69
2023/12/01 08:21:35;;;;;;;14.00;13.50;;;1.70;99.90;;;;;;5082543;28;20877;-71
2023/12/01 08:24:04;;;;;;;14.00;13.50;;;1.70;99.90;;;;;;5088239;28;20475;-69
2023/12/01 08:26:33;;;;;;;14.40;13.90;;;1.80;99.90;;;;;;5079519;28;20550;-70
2023/12/01 08:28:59;;;;;;;14.50;14.00;;;1.90;99.90;;;;;;5096669;28;20820;-69
2023/12/01 08:31:27;;;;;;;14.30;13.80;;;1.90;99.90;;;;;;5098029;28;20453;-71
2023/12/01 08:33:54;;;;;;;14.50;14.00;;;1.90;99.90;;;;;;5093125;28;20926;-71
2023/12/01 08:36:21;;;;;;;14.33;13.83;;;1.80;99.90;;;;;;5076777;28;20467;-69
2023/12/01 08:38:47;;;;;;;14.40;13.90;;;1.80;99.90;;;;;;5076126;28;20492;-69
2023/12/01 08:41:15;;;;;;;14.40;13.90;;;1.90;99.90;;;;;;5084054;28;20492;-70
2023/12/01 08:43:43;;;;;;;14.27;13.77;;;1.90;99.90;;;;;;5085865;28;20447;-70
2023/12/01 08:46:11;;;;;;;14.30;13.80;;;1.90;99.90;;;;;;5085733;28;20971;-72
2023/12/01 08:48:39;;;;;;;14.50;14.00;;;2.00;99.90;;;;;;5084379;28;20549;-71
2023/12/01 08:51:06;;;;;;;14.30;13.80;;;1.90;99.90;;;;;;5085156;28;20466;-72
2023/12/01 08:53:33;;;;;;;13.80;13.40;;;2.00;99.90;;;;;;5079514;28;20497;-71
2023/12/01 08:56:00;;;;;;;13.67;13.27;;;2.00;99.90;;;;;;5086436;28;20518;-72
2023/12/01 08:58:27;;;;;;;14.00;13.57;;;1.90;99.90;;;;;;5077288;28;20454;-69
2023/12/01 09:00:55;;;;;;;14.30;13.80;;;1.80;99.90;;;;;;5088334;28;20557;-71
2023/12/01 09:03:23;;;;;;;14.17;13.67;;;1.80;99.90;;;;;;5087883;28;20454;-69
2023/12/01 09:05:49;;;;;;;13.90;13.40;;;1.80;99.90;;;;;;5078405;28;20462;-70
2023/12/01 09:08:17;;;;;;;14.30;13.80;;;1.80;99.90;;;;;;5088553;28;20465;-69
2023/12/01 09:10:44;;;;;;;14.10;13.60;;;1.80;99.90;;;;;;5071196;28;20989;-70
2023/12/01 09:13:11;;;;;;;14.20;13.70;;;1.70;99.90;;;;;;5073438;28;20492;-71
2023/12/01 09:15:39;;;;;;;13.90;13.40;;;1.80;99.90;;;;;;5082170;28;20451;-71
2023/12/01 09:18:07;;;;;;;14.03;13.53;;;1.80;99.90;;;;;;5093744;28;20924;-70
2023/12/01 09:20:34;;;;;;;14.50;14.00;;;1.60;99.90;;;;;;5072929;28;20545;-71
2023/12/01 09:23:01;;;;;;;14.00;13.50;;;1.50;99.90;;;;;;5074684;28;20872;-73
2023/12/01 09:25:28;;;;;;;14.10;13.60;;;1.50;99.90;;;;;;5087279;28;20475;-70
2023/12/01 09:27:55;;;;;;;13.57;13.17;;;1.60;99.90;;;;;;5086249;28;20465;-70
2023/12/01 09:30:22;;;;;;;13.23;12.83;;;1.70;99.90;;;;;;5079316;28;20497;-72
2023/12/01 09:32:48;;;;;;;14.00;13.50;;;1.60;99.90;;;;;;5083753;28;20487;-69
2023/12/01 09:35:19;;;;;;;13.93;13.43;;;1.70;99.90;;;;;;5086271;28;20569;-69
2023/12/01 09:37:46;;;;;;;13.90;13.40;;;1.80;99.90;;;;;;5086986;28;20455;-69
2023/12/01 09:40:14;;;;;;;13.10;12.70;;;1.80;99.90;;;;;;5075724;28;20482;-72
2023/12/01 09:42:42;;;;;;;13.70;13.30;;;1.50;99.90;;;;;;5088219;28;20466;-69
2023/12/01 09:45:14;;;;;;;13.60;13.20;;;1.60;99.90;;;;;;5081578;28;20473;-68
2023/12/01 09:47:46;;;;;;;13.50;13.10;;;1.60;99.90;;;;;;5089977;28;20968;-71
2023/12/01 09:50:14;;;;;;;13.90;13.40;;;1.50;99.90;;;;;;5085417;28;20490;-71
2023/12/01 09:52:43;;;;;;;14.70;14.20;;;1.50;99.90;;;;;;5083150;28;20478;-72
2023/12/01 09:55:10;;;;;;;14.47;13.97;;;1.60;99.90;;;;;;5088404;28;20870;-69
2023/12/01 09:57:38;;;;;;;14.07;13.57;;;1.50;99.90;;;;;;5082563;28;20462;-73
2023/12/01 10:00:10;;;;;;;13.20;12.80;;;1.60;99.90;;;;;;5089465;28;20505;-69
2023/12/01 10:02:38;;;;;;;14.40;13.90;;;1.60;99.90;;;;;;5077960;28;20454;-70
2023/12/01 10:05:07;;;;;;;14.40;13.90;;;1.50;99.90;;;;;;5078652;28;20456;-72
2023/12/01 10:07:34;;;;;;;14.30;13.80;;;1.40;99.90;;;;;;5078425;28;20554;-69
2023/12/01 10:10:18;;;;;;;13.83;13.33;;;1.30;99.90;;;;;;5077931;28;20467;-72
2023/12/01 10:12:55;;;;;;;14.20;13.70;;;1.30;99.90;;;;;;5087917;28;20536;-69
2023/12/01 10:15:22;;;;;;;13.70;13.20;;;1.20;99.90;;;;;;5074343;28;20473;-70
2023/12/01 10:17:49;;;;;;;14.30;13.80;;;1.20;99.90;;;;;;5090623;28;20465;-70
2023/12/01 10:20:20;;;;;;;13.70;13.20;;;1.30;99.90;;;;;;5084068;28;20487;-71
2023/12/01 10:22:48;;;;;;;14.10;13.60;;;1.30;99.90;;;;;;5087920;28;20482;-70
2023/12/01 10:25:17;;;;;;;13.80;13.30;;;1.40;99.90;;;;;;5071067;28;20540;-70
2023/12/01 10:27:55;;;;;;;13.60;13.13;;;1.40;99.90;;;;;;5069606;28;20466;-69
2023/12/01 10:30:22;;;;;;;13.87;13.37;;;1.40;99.90;;;;;;5076520;28;20739;-72
2023/12/01 10:32:51;;;;;;;13.73;13.23;;;1.30;99.90;;;;;;5075384;28;20495;-73
2023/12/01 10:35:18;;;;;;;14.00;13.50;;;1.20;99.90;;;;;;5075691;28;20459;-72
2023/12/01 10:37:47;;;;;;;13.40;13.00;;;1.20;99.90;;;;;;5072845;28;20462;-72
2023/12/01 10:40:17;;;;;;;13.80;13.30;;;1.20;99.90;;;;;;5072121;28;21096;-70
2023/12/01 10:42:47;;;;;;;13.33;12.93;;;1.40;99.90;;;;;;5071859;28;20475;-71
2023/12/01 10:45:16;;;;;;;13.90;13.40;;;1.30;99.90;;;;;;5074360;28;20454;-73
2023/12/01 10:47:46;;;;;;;13.90;13.40;;;1.40;99.90;;;;;;5076430;28;20469;-71
2023/12/01 10:50:15;;;;;;;14.00;13.50;;;1.50;99.90;;;;;;5076400;28;20554;-72
2023/12/01 10:52:45;;;;;;;13.40;13.00;;;1.40;99.90;;;;;;5078210;28;20927;-69
2023/12/01 10:55:13;;;;;;;13.43;13.03;;;1.20;99.90;;;;;;5073596;28;20474;-69
2023/12/01 10:57:44;;;;;;;13.20;12.80;;;1.20;99.90;;;;;;5076755;28;20463;-70
2023/12/01 11:00:29;;;;;;;14.00;13.50;;;1.30;99.90;;;;;;5071987;28;20467;-71
2023/12/01 11:02:59;;;;;;;14.13;13.63;;;1.40;99.90;;;;;;5078783;28;20481;-72
2023/12/01 11:05:30;;;;;;;14.37;13.87;;;1.40;99.90;;;;;;5074535;28;20527;-72
2023/12/01 11:08:10;;;;;;;14.50;14.00;;;1.50;99.90;;;;;;5074252;28;20459;-69
2023/12/01 11:10:43;;;;;;;14.30;13.80;;;1.60;99.90;;;;;;5076415;28;20463;-72
2023/12/01 11:13:22;;;;;;;14.50;14.00;;;1.40;99.90;;;;;;5072682;28;20487;-71
2023/12/01 11:15:51;;;;;;;14.97;14.47;;;1.50;99.90;;;;;;5076192;28;20463;-71
2023/12/01 11:18:18;;;;;;;14.57;14.07;;;1.40;99.90;;;;;;5074785;28;20476;-72
2023/12/01 11:20:48;;;;;;;14.70;14.20;;;1.30;99.90;;;;;;5073662;28;20462;-71
2023/12/01 11:23:25;;;;;;;14.90;14.40;;;1.30;99.90;;;;;;5074797;28;20969;-70
2023/12/01 11:25:55;;;;;;;14.70;14.20;;;1.40;99.90;;;;;;5072630;28;20459;-73
2023/12/01 11:28:28;;;;;;;14.90;14.40;;;1.60;99.90;;;;;;5071268;28;20452;-70
2023/12/01 11:31:08;;;;;;;15.13;14.57;;;1.60;99.90;;;;;;5077096;28;20460;-71
2023/12/01 11:33:43;;;;;;;14.90;14.40;;;1.50;99.90;;;;;;5074955;28;20490;-70
2023/12/01 11:36:31;;;;;;;15.00;14.50;;;1.60;99.90;;;;;;5070279;28;20806;-70
2023/12/01 11:39:17;;;;;;;15.07;14.50;;;1.70;99.90;;;;;;5074494;28;20456;-70
2023/12/01 11:41:51;;;;;;;14.50;14.00;;;1.90;99.90;;;;;;5071113;28;20475;-71
2023/12/01 11:44:23;;;;;;;14.30;13.80;;;1.90;99.90;;;;;;5074726;28;20455;-69
2023/12/01 11:46:55;;;;;;;14.80;14.30;;;1.70;99.90;;;;;;5075360;28;20980;-70
2023/12/01 11:49:23;;;;;;;14.30;13.80;;;1.60;99.90;;;;;;5073867;28;20487;-69
2023/12/01 11:51:50;;;;;;;14.37;13.87;;;1.80;99.90;;;;;;5074445;28;20499;-71
2023/12/01 11:54:17;;;;;;;14.40;13.90;;;1.80;99.90;;;;;;5076634;28;20482;-69
2023/12/01 11:56:48;;;;;;;14.73;14.23;;;1.90;99.90;;;;;;5073639;28;20463;-69
2023/12/01 11:59:15;;;;;;;14.83;14.33;;;2.00;99.90;;;;;;5076457;28;20469;-70
2023/12/01 12:01:43;;;;;;;14.97;14.47;;;1.90;99.90;;;;;;5074222;28;20468;-70
2023/12/01 12:04:13;;;;;;;14.90;14.40;;;1.70;99.90;;;;;;5073979;28;20455;-68
2023/12/01 12:06:41;;;;;;;14.90;14.40;;;1.70;99.90;;;;;;5075146;28;20942;-71
2023/12/01 12:09:08;;;;;;;14.80;14.30;;;1.70;99.90;;;;;;5069055;28;20550;-71
2023/12/01 12:11:39;;;;;;;14.60;14.10;;;1.70;99.90;;;;;;5074567;28;20495;-69
2023/12/01 12:14:06;;;;;;;14.60;14.10;;;1.60;99.90;;;;;;5074982;28;20493;-69
2023/12/01 12:16:33;;;;;;;14.90;14.40;;;1.70;99.90;;;;;;5074684;28;20469;-69
2023/12/01 12:19:02;;;;;;;14.67;14.17;;;1.60;99.90;;;;;;5071286;28;20459;-70
2023/12/01 12:21:29;;;;;;;14.73;14.23;;;1.60;99.90;;;;;;5074649;28;20483;-68
2023/12/01 12:23:56;;;;;;;14.80;14.30;;;1.70;99.90;;;;;;5071780;28;21083;-69
2023/12/01 12:26:24;;;;;;;15.00;14.50;;;1.70;99.90;;;;;;5072031;28;20969;-72
2023/12/01 12:28:53;;;;;;;15.10;14.60;;;1.60;99.90;;;;;;5073100;28;20490;-71
2023/12/01 12:31:20;;;;;;;14.67;14.17;;;1.60;99.90;;;;;;5073442;28;20497;-69
2023/12/01 12:33:49;;;;;;;14.90;14.40;;;1.70;99.90;;;;;;5071004;28;20486;-70
2023/12/01 12:36:18;;;;;;;14.50;14.00;;;1.60;99.90;;;;;;5072969;28;20460;-71
2023/12/01 12:38:48;;;;;;;14.63;14.13;;;1.60;99.90;;;;;;5075246;28;20558;-69
2023/12/01 12:41:23;;;;;;;15.67;15.07;;;1.70;99.90;;;;;;5073052;28;20487;-72
2023/12/01 12:43:52;;;;;;;15.30;14.70;;;1.70;99.90;;;;;;5075082;28;20540;-71
2023/12/01 12:46:19;;;;;;;15.03;14.53;;;1.80;99.90;;;;;;5070377;28;20470;-71
2023/12/01 12:48:46;;;;;;;15.40;14.80;;;1.80;99.90;;;;;;5070212;28;20463;-70